Terminal Aerodrome Forecast
Issued by NWS

Home | Current Version | Previous Version | Text Only | Print | Product List | Glossary On
Versions: 1 2 3 4 5 6 7 8 9 10 11 12 13
588
FTUS42 TJSJ 250520
TAFJBQ
TAF
TJBQ 250520Z 2506/2606 11010KT P6SM SCT060
     FM251300 08015KT P6SM FEW030 SCT050
     FM252300 11010KT P6SM SCT060
      AMD NOT SKED TIL 251100=

USA.gov is the U.S. government's official web portal to all federal, state and local government web resources and services.